sensor_id;sensor_type;location;lat;lon;timestamp;pressure;altitude;pressure_sealevel;temperature;humidity
10060;BME280;5069;49.306;8.636;2023-04-30T00:02:00;100881.09;;;13.60;90.68
10060;BME280;5069;49.306;8.636;2023-04-30T00:05:02;100877.53;;;13.61;90.45
10060;BME280;5069;49.306;8.636;2023-04-30T00:08:04;100884.53;;;13.62;90.82
10060;BME280;5069;49.306;8.636;2023-04-30T00:11:05;100884.53;;;13.62;92.94
10060;BME280;5069;49.306;8.636;2023-04-30T00:14:07;100883.56;;;13.64;92.93
10060;BME280;5069;49.306;8.636;2023-04-30T00:17:08;100886.09;;;13.68;92.73
10060;BME280;5069;49.306;8.636;2023-04-30T00:20:10;100896.63;;;13.69;92.12
10060;BME280;5069;49.306;8.636;2023-04-30T00:23:12;100898.41;;;13.69;92.86
10060;BME280;5069;49.306;8.636;2023-04-30T00:26:14;100893.16;;;13.67;94.03
10060;BME280;5069;49.306;8.636;2023-04-30T00:29:20;100899.72;;;13.34;98.85
10060;BME280;5069;49.306;8.636;2023-04-30T00:32:21;100905.81;;;13.12;100.00
10060;BME280;5069;49.306;8.636;2023-04-30T00:35:23;100903.91;;;13.16;100.00
10060;BME280;5069;49.306;8.636;2023-04-30T00:38:24;100904.50;;;13.24;100.00
10060;BME280;5069;49.306;8.636;2023-04-30T00:41:26;100904.28;;;13.30;99.98
10060;BME280;5069;49.306;8.636;2023-04-30T00:44:28;100899.47;;;13.16;100.00
10060;BME280;5069;49.306;8.636;2023-04-30T00:47:30;100905.34;;;13.00;100.00
10060;BME280;5069;49.306;8.636;2023-04-30T00:50:35;100901.91;;;12.98;100.00
10060;BME280;5069;49.306;8.636;2023-04-30T00:53:37;100902.63;;;13.03;100.00
10060;BME280;5069;49.306;8.636;2023-04-30T00:56:40;100896.31;;;13.05;100.00
10060;BME280;5069;49.306;8.636;2023-04-30T00:59:41;100898.22;;;13.02;100.00
10060;BME280;5069;49.306;8.636;2023-04-30T01:02:43;100891.25;;;12.99;100.00
10060;BME280;5069;49.306;8.636;2023-04-30T01:05:44;100894.75;;;13.00;100.00
10060;BME280;5069;49.306;8.636;2023-04-30T01:08:47;100892.03;;;13.03;100.00
10060;BME280;5069;49.306;8.636;2023-04-30T01:12:07;100889.38;;;13.03;100.00
10060;BME280;5069;49.306;8.636;2023-04-30T01:15:20;100892.72;;;13.08;100.00
10060;BME280;5069;49.306;8.636;2023-04-30T01:18:39;100898.22;;;13.02;100.00
10060;BME280;5069;49.306;8.636;2023-04-30T01:21:44;100892.88;;;13.03;100.00
10060;BME280;5069;49.306;8.636;2023-04-30T01:25:13;100892.19;;;12.98;100.00
10060;BME280;5069;49.306;8.636;2023-04-30T01:28:19;100889.38;;;13.03;100.00
10060;BME280;5069;49.306;8.636;2023-04-30T01:31:22;100882.13;;;13.08;100.00
10060;BME280;5069;49.306;8.636;2023-04-30T01:34:24;100882.00;;;13.11;100.00
10060;BME280;5069;49.306;8.636;2023-04-30T01:37:34;100880.22;;;13.13;100.00
10060;BME280;5069;49.306;8.636;2023-04-30T01:48:26;100873.09;;;13.15;100.00
10060;BME280;5069;49.306;8.636;2023-04-30T01:51:40;100883.56;;;13.18;98.50
10060;BME280;5069;49.306;8.636;2023-04-30T01:54:51;100890.44;;;13.22;98.20
10060;BME280;5069;49.306;8.636;2023-04-30T01:58:06;100885.16;;;13.22;96.02
10060;BME280;5069;49.306;8.636;2023-04-30T02:01:30;100891.44;;;13.19;97.14
10060;BME280;5069;49.306;8.636;2023-04-30T02:04:32;100890.69;;;13.16;100.00
10060;BME280;5069;49.306;8.636;2023-04-30T02:07:47;100886.13;;;12.95;100.00
10060;BME280;5069;49.306;8.636;2023-04-30T02:10:49;100881.81;;;12.92;100.00
10060;BME280;5069;49.306;8.636;2023-04-30T02:13:50;100898.44;;;12.96;100.00
10060;BME280;5069;49.306;8.636;2023-04-30T02:16:52;100887.84;;;12.96;100.00
10060;BME280;5069;49.306;8.636;2023-04-30T02:19:54;100889.09;;;12.86;100.00
10060;BME280;5069;49.306;8.636;2023-04-30T02:22:56;100888.78;;;12.95;100.00
10060;BME280;5069;49.306;8.636;2023-04-30T02:25:57;100888.13;;;12.88;100.00
10060;BME280;5069;49.306;8.636;2023-04-30T02:28:59;100890.88;;;12.85;100.00
10060;BME280;5069;49.306;8.636;2023-04-30T02:32:00;100881.03;;;12.89;100.00
10060;BME280;5069;49.306;8.636;2023-04-30T02:35:02;100879.53;;;12.81;100.00
10060;BME280;5069;49.306;8.636;2023-04-30T02:38:04;100875.06;;;12.83;100.00
10060;BME280;5069;49.306;8.636;2023-04-30T02:41:05;100887.41;;;12.83;100.00
10060;BME280;5069;49.306;8.636;2023-04-30T02:44:06;100878.69;;;12.81;100.00
10060;BME280;5069;49.306;8.636;2023-04-30T02:47:08;100878.56;;;12.84;100.00
10060;BME280;5069;49.306;8.636;2023-04-30T02:50:09;100881.03;;;12.89;100.00
10060;BME280;5069;49.306;8.636;2023-04-30T02:53:11;100879.22;;;12.91;100.00
10060;BME280;5069;49.306;8.636;2023-04-30T02:56:12;100877.50;;;12.90;100.00
10060;BME280;5069;49.306;8.636;2023-04-30T02:59:14;100874.03;;;12.88;100.00
10060;BME280;5069;49.306;8.636;2023-04-30T03:02:15;100881.81;;;12.67;100.00
10060;BME280;5069;49.306;8.636;2023-04-30T03:05:21;100885.28;;;12.69;100.00
10060;BME280;5069;49.306;8.636;2023-04-30T03:08:23;100883.41;;;12.71;100.00
10060;BME280;5069;49.306;8.636;2023-04-30T03:11:24;100884.94;;;12.78;100.00
10060;BME280;5069;49.306;8.636;2023-04-30T03:14:26;100884.03;;;12.79;100.00
10060;BME280;5069;49.306;8.636;2023-04-30T03:17:27;100895.53;;;12.78;100.00
10060;BME280;5069;49.306;8.636;2023-04-30T03:20:29;100887.47;;;12.81;100.00
10060;BME280;5069;49.306;8.636;2023-04-30T03:23:30;100889.53;;;12.73;100.00
10060;BME280;5069;49.306;8.636;2023-04-30T03:26:32;100889.63;;;12.70;100.00
10060;BME280;5069;49.306;8.636;2023-04-30T03:29:33;100888.16;;;12.62;100.00
10060;BME280;5069;49.306;8.636;2023-04-30T03:32:35;100882.84;;;12.63;100.00
10060;BME280;5069;49.306;8.636;2023-04-30T03:35:36;100888.63;;;12.48;100.00
10060;BME280;5069;49.306;8.636;2023-04-30T03:38:39;100882.75;;;12.40;100.00
10060;BME280;5069;49.306;8.636;2023-04-30T03:41:40;100880.69;;;12.48;100.00
10060;BME280;5069;49.306;8.636;2023-04-30T03:44:42;100883.13;;;12.54;100.00
10060;BME280;5069;49.306;8.636;2023-04-30T03:47:43;100878.88;;;12.50;100.00
10060;BME280;5069;49.306;8.636;2023-04-30T03:50:45;100872.56;;;12.54;100.00
10060;BME280;5069;49.306;8.636;2023-04-30T03:53:46;100878.66;;;12.56;100.00
10060;BME280;5069;49.306;8.636;2023-04-30T03:56:48;100874.94;;;12.62;100.00
10060;BME280;5069;49.306;8.636;2023-04-30T03:59:50;100873.16;;;12.62;100.00
10060;BME280;5069;49.306;8.636;2023-04-30T04:02:51;100870.53;;;12.62;100.00
10060;BME280;5069;49.306;8.636;2023-04-30T04:05:53;100874.03;;;12.63;100.00
10060;BME280;5069;49.306;8.636;2023-04-30T04:08:54;100867.97;;;12.59;100.00
10060;BME280;5069;49.306;8.636;2023-04-30T04:11:56;100867.44;;;12.50;100.00
10060;BME280;5069;49.306;8.636;2023-04-30T04:14:58;100873.59;;;12.50;100.00
10060;BME280;5069;49.306;8.636;2023-04-30T04:17:59;100874.44;;;12.51;100.00
10060;BME280;5069;49.306;8.636;2023-04-30T04:21:01;100879.69;;;12.52;98.32
10060;BME280;5069;49.306;8.636;2023-04-30T04:24:03;100887.41;;;12.58;99.13
10060;BME280;5069;49.306;8.636;2023-04-30T04:27:08;100887.41;;;12.58;97.00
10060;BME280;5069;49.306;8.636;2023-04-30T04:30:11;100890.84;;;12.60;97.78
10060;BME280;5069;49.306;8.636;2023-04-30T04:33:14;100895.19;;;12.63;96.66
10060;BME280;5069;49.306;8.636;2023-04-30T04:36:17;100888.81;;;12.68;96.27
10060;BME280;5069;49.306;8.636;2023-04-30T04:39:19;100902.75;;;12.73;95.60
10060;BME280;5069;49.306;8.636;2023-04-30T04:42:20;100893.03;;;12.74;94.35
10060;BME280;5069;49.306;8.636;2023-04-30T04:45:22;100895.72;;;12.72;93.03
10060;BME280;5069;49.306;8.636;2023-04-30T04:48:24;100894.13;;;12.68;92.77
10060;BME280;5069;49.306;8.636;2023-04-30T04:51:25;100902.91;;;12.69;92.83
10060;BME280;5069;49.306;8.636;2023-04-30T04:54:28;100898.41;;;12.71;92.74
10060;BME280;5069;49.306;8.636;2023-04-30T04:57:29;100895.91;;;12.68;92.82
10060;BME280;5069;49.306;8.636;2023-04-30T05:00:31;100897.47;;;12.73;93.40
10060;BME280;5069;49.306;8.636;2023-04-30T05:03:34;100899.94;;;12.78;92.96
10060;BME280;5069;49.306;8.636;2023-04-30T05:06:39;100897.25;;;12.79;93.12
10060;BME280;5069;49.306;8.636;2023-04-30T05:09:41;100904.13;;;12.85;93.21
10060;BME280;5069;49.306;8.636;2023-04-30T05:12:43;100900.47;;;12.88;92.23
10060;BME280;5069;49.306;8.636;2023-04-30T05:15:44;100898.63;;;12.91;92.06
10060;BME280;5069;49.306;8.636;2023-04-30T05:18:46;100905.69;;;12.91;92.12
10060;BME280;5069;49.306;8.636;2023-04-30T05:21:47;100902.81;;;12.97;92.43
10060;BME280;5069;49.306;8.636;2023-04-30T05:24:49;100909.63;;;13.04;91.10
10060;BME280;5069;49.306;8.636;2023-04-30T05:27:53;100901.56;;;13.07;91.29
10060;BME280;5069;49.306;8.636;2023-04-30T05:30:54;100896.09;;;13.11;90.75
10060;BME280;5069;49.306;8.636;2023-04-30T05:33:55;100901.22;;;13.17;89.88
10060;BME280;5069;49.306;8.636;2023-04-30T05:36:57;100915.97;;;13.24;89.52
10060;BME280;5069;49.306;8.636;2023-04-30T05:39:58;100915.63;;;13.34;89.40
10060;BME280;5069;49.306;8.636;2023-04-30T05:43:00;100918.22;;;13.35;87.99
10060;BME280;5069;49.306;8.636;2023-04-30T05:46:01;100916.16;;;13.43;88.34
10060;BME280;5069;49.306;8.636;2023-04-30T05:49:03;100915.59;;;13.58;86.80
10060;BME280;5069;49.306;8.636;2023-04-30T05:52:04;100911.72;;;13.67;87.36
10060;BME280;5069;49.306;8.636;2023-04-30T05:55:06;100912.25;;;13.77;86.04
10060;BME280;5069;49.306;8.636;2023-04-30T05:58:08;100914.66;;;13.83;85.75
10060;BME280;5069;49.306;8.636;2023-04-30T06:01:09;100911.81;;;13.87;84.33
10060;BME280;5069;49.306;8.636;2023-04-30T06:04:11;100913.56;;;13.88;84.43
10060;BME280;5069;49.306;8.636;2023-04-30T06:07:12;100913.03;;;13.79;83.62
10060;BME280;5069;49.306;8.636;2023-04-30T06:10:14;100913.66;;;13.85;84.32
10060;BME280;5069;49.306;8.636;2023-04-30T06:13:15;100914.91;;;13.98;84.12
10060;BME280;5069;49.306;8.636;2023-04-30T06:16:17;100909.88;;;14.14;84.20
10060;BME280;5069;49.306;8.636;2023-04-30T06:19:19;100910.97;;;14.08;81.38
10060;BME280;5069;49.306;8.636;2023-04-30T06:22:21;100914.81;;;14.23;81.44
10060;BME280;5069;49.306;8.636;2023-04-30T06:25:22;100915.53;;;14.27;80.64
10060;BME280;5069;49.306;8.636;2023-04-30T06:28:23;100919.97;;;14.26;79.82
10060;BME280;5069;49.306;8.636;2023-04-30T06:31:25;100918.88;;;14.10;80.94
10060;BME280;5069;49.306;8.636;2023-04-30T06:34:27;100918.28;;;14.02;81.00
10060;BME280;5069;49.306;8.636;2023-04-30T06:37:28;100915.88;;;13.96;82.41
10060;BME280;5069;49.306;8.636;2023-04-30T06:40:32;100917.38;;;14.03;83.87
10060;BME280;5069;49.306;8.636;2023-04-30T06:43:34;100915.13;;;14.16;81.47
10060;BME280;5069;49.306;8.636;2023-04-30T06:46:35;100919.34;;;14.20;80.04
10060;BME280;5069;49.306;8.636;2023-04-30T06:49:37;100918.16;;;14.28;81.30
10060;BME280;5069;49.306;8.636;2023-04-30T06:52:38;100918.09;;;14.52;80.45
10060;BME280;5069;49.306;8.636;2023-04-30T06:55:40;100920.09;;;14.67;77.81
10060;BME280;5069;49.306;8.636;2023-04-30T06:58:42;100918.47;;;14.84;75.37
10060;BME280;5069;49.306;8.636;2023-04-30T07:01:44;100919.03;;;14.71;75.56
10060;BME280;5069;49.306;8.636;2023-04-30T07:04:45;100919.44;;;14.82;76.39
10060;BME280;5069;49.306;8.636;2023-04-30T07:07:47;100910.09;;;14.94;73.74
10060;BME280;5069;49.306;8.636;2023-04-30T07:10:49;100918.25;;;15.09;72.79
10060;BME280;5069;49.306;8.636;2023-04-30T07:13:51;100919.84;;;15.13;73.23
10060;BME280;5069;49.306;8.636;2023-04-30T07:16:52;100920.63;;;15.36;71.32
10060;BME280;5069;49.306;8.636;2023-04-30T07:19:53;100926.75;;;15.38;71.11
10060;BME280;5069;49.306;8.636;2023-04-30T07:22:55;100927.53;;;15.40;68.87
10060;BME280;5069;49.306;8.636;2023-04-30T07:25:57;100920.09;;;15.27;69.08
10060;BME280;5069;49.306;8.636;2023-04-30T07:28:59;100918.63;;;15.41;70.20
10060;BME280;5069;49.306;8.636;2023-04-30T07:32:00;100920.78;;;15.51;70.39
10060;BME280;5069;49.306;8.636;2023-04-30T07:35:03;100920.09;;;15.27;69.28
10060;BME280;5069;49.306;8.636;2023-04-30T07:38:05;100919.81;;;15.34;69.53
10060;BME280;5069;49.306;8.636;2023-04-30T07:41:07;100921.56;;;15.55;68.43
10060;BME280;5069;49.306;8.636;2023-04-30T07:44:09;100922.09;;;15.43;67.25
10060;BME280;5069;49.306;8.636;2023-04-30T07:47:12;100915.16;;;15.39;68.51
10060;BME280;5069;49.306;8.636;2023-04-30T07:50:13;100915.53;;;15.50;68.35
10060;BME280;5069;49.306;8.636;2023-04-30T07:53:15;100912.63;;;15.56;66.83
10060;BME280;5069;49.306;8.636;2023-04-30T07:56:16;100913.97;;;15.66;68.00
10060;BME280;5069;49.306;8.636;2023-04-30T07:59:18;100912.72;;;15.73;67.11
10060;BME280;5069;49.306;8.636;2023-04-30T08:02:21;100922.56;;;15.71;66.26
10060;BME280;5069;49.306;8.636;2023-04-30T08:05:23;100919.72;;;15.94;66.77
10060;BME280;5069;49.306;8.636;2023-04-30T08:08:24;100915.50;;;16.07;65.08
10060;BME280;5069;49.306;8.636;2023-04-30T08:11:26;100921.56;;;15.92;63.71
10060;BME280;5069;49.306;8.636;2023-04-30T08:14:27;100913.38;;;15.78;64.78
10060;BME280;5069;49.306;8.636;2023-04-30T08:17:29;100917.69;;;15.99;63.79
10060;BME280;5069;49.306;8.636;2023-04-30T08:20:31;100914.34;;;16.32;61.91
10060;BME280;5069;49.306;8.636;2023-04-30T08:23:33;100913.38;;;16.51;62.78
10060;BME280;5069;49.306;8.636;2023-04-30T08:26:34;100904.88;;;16.62;63.76
10060;BME280;5069;49.306;8.636;2023-04-30T08:29:36;100908.88;;;16.52;61.68
10060;BME280;5069;49.306;8.636;2023-04-30T08:32:37;100902.53;;;16.37;60.67
10060;BME280;5069;49.306;8.636;2023-04-30T08:35:39;100902.63;;;16.53;61.17
10060;BME280;5069;49.306;8.636;2023-04-30T08:38:40;100908.53;;;16.60;59.17
10060;BME280;5069;49.306;8.636;2023-04-30T08:41:44;100910.03;;;16.82;59.66
10060;BME280;5069;49.306;8.636;2023-04-30T08:44:46;100907.03;;;17.06;55.94
10060;BME280;5069;49.306;8.636;2023-04-30T08:47:48;100909.47;;;17.10;54.48
10060;BME280;5069;49.306;8.636;2023-04-30T08:50:50;100908.09;;;17.36;53.11
10060;BME280;5069;49.306;8.636;2023-04-30T08:53:54;100907.78;;;17.58;53.74
10060;BME280;5069;49.306;8.636;2023-04-30T08:56:57;100910.00;;;17.50;51.52
10060;BME280;5069;49.306;8.636;2023-04-30T08:59:59;100898.91;;;17.42;51.08
10060;BME280;5069;49.306;8.636;2023-04-30T09:03:00;100897.28;;;17.55;50.36
10060;BME280;5069;49.306;8.636;2023-04-30T09:06:02;100908.03;;;17.70;50.87
10060;BME280;5069;49.306;8.636;2023-04-30T09:09:14;100904.50;;;17.70;49.19
10060;BME280;5069;49.306;8.636;2023-04-30T09:12:17;100894.09;;;17.81;48.63
10060;BME280;5069;49.306;8.636;2023-04-30T09:15:20;100894.47;;;17.58;49.41
10060;BME280;5069;49.306;8.636;2023-04-30T09:18:21;100892.09;;;17.85;49.76
10060;BME280;5069;49.306;8.636;2023-04-30T09:21:34;100891.94;;;18.19;48.99
10060;BME280;5069;49.306;8.636;2023-04-30T09:24:45;100879.78;;;18.29;48.51
10060;BME280;5069;49.306;8.636;2023-04-30T09:27:47;100885.44;;;18.54;47.15
10060;BME280;5069;49.306;8.636;2023-04-30T09:30:49;100892.59;;;18.38;46.31
10060;BME280;5069;49.306;8.636;2023-04-30T09:33:52;100898.09;;;18.35;45.73
10060;BME280;5069;49.306;8.636;2023-04-30T09:36:56;100893.31;;;18.26;45.21
10060;BME280;5069;49.306;8.636;2023-04-30T09:39:58;100885.72;;;18.18;46.91
10060;BME280;5069;49.306;8.636;2023-04-30T09:43:00;100883.94;;;18.03;46.64
10060;BME280;5069;49.306;8.636;2023-04-30T09:46:02;100886.97;;;17.97;46.63
10060;BME280;5069;49.306;8.636;2023-04-30T09:49:05;100881.09;;;18.22;44.81
10060;BME280;5069;49.306;8.636;2023-04-30T09:52:08;100881.34;;;18.33;42.14
10060;BME280;5069;49.306;8.636;2023-04-30T09:55:10;100882.03;;;18.21;44.42
10060;BME280;5069;49.306;8.636;2023-04-30T09:58:13;100892.59;;;18.23;45.19
10060;BME280;5069;49.306;8.636;2023-04-30T10:01:18;100894.88;;;18.14;45.24
10060;BME280;5069;49.306;8.636;2023-04-30T10:04:20;100886.09;;;18.28;45.00
10060;BME280;5069;49.306;8.636;2023-04-30T10:07:24;100880.72;;;18.44;45.25
10060;BME280;5069;49.306;8.636;2023-04-30T10:10:30;100875.88;;;18.35;44.84
10060;BME280;5069;49.306;8.636;2023-04-30T10:13:49;100876.69;;;18.21;45.47
10060;BME280;5069;49.306;8.636;2023-04-30T10:16:59;100881.09;;;17.91;46.02
10060;BME280;5069;49.306;8.636;2023-04-30T10:20:05;100877.66;;;17.89;45.90
10060;BME280;5069;49.306;8.636;2023-04-30T10:23:09;100877.22;;;17.96;47.00
10060;BME280;5069;49.306;8.636;2023-04-30T10:26:11;100871.00;;;18.11;45.91
10060;BME280;5069;49.306;8.636;2023-04-30T10:29:14;100871.81;;;17.98;44.92
10060;BME280;5069;49.306;8.636;2023-04-30T10:32:16;100876.81;;;17.88;46.28
10060;BME280;5069;49.306;8.636;2023-04-30T10:35:23;100869.22;;;17.81;46.52
10060;BME280;5069;49.306;8.636;2023-04-30T10:38:28;100876.97;;;17.69;45.68
10060;BME280;5069;49.306;8.636;2023-04-30T10:41:30;100872.91;;;17.62;45.63
10060;BME280;5069;49.306;8.636;2023-04-30T10:44:33;100867.84;;;17.73;46.50
10060;BME280;5069;49.306;8.636;2023-04-30T10:47:36;100867.69;;;17.77;45.38
10060;BME280;5069;49.306;8.636;2023-04-30T10:50:40;100866.38;;;17.84;46.32
10060;BME280;5069;49.306;8.636;2023-04-30T10:53:50;100855.81;;;17.82;46.89
10060;BME280;5069;49.306;8.636;2023-04-30T10:57:16;100859.25;;;17.84;47.12
10060;BME280;5069;49.306;8.636;2023-04-30T11:00:19;100863.03;;;17.80;46.92
10060;BME280;5069;49.306;8.636;2023-04-30T11:03:21;100859.69;;;17.77;46.67
10060;BME280;5069;49.306;8.636;2023-04-30T11:06:23;100858.00;;;17.58;46.75
10060;BME280;5069;49.306;8.636;2023-04-30T11:09:39;100856.28;;;17.57;47.47
10060;BME280;5069;49.306;8.636;2023-04-30T11:12:47;100846.19;;;17.64;46.67
10060;BME280;5069;49.306;8.636;2023-04-30T11:15:49;100845.13;;;17.66;46.94
10060;BME280;5069;49.306;8.636;2023-04-30T11:18:50;100848.06;;;17.77;47.11
10060;BME280;5069;49.306;8.636;2023-04-30T11:25:22;100846.16;;;17.95;46.00
10060;BME280;5069;49.306;8.636;2023-04-30T11:28:25;100845.41;;;17.93;46.55
10060;BME280;5069;49.306;8.636;2023-04-30T11:31:32;100846.69;;;18.02;47.03
10060;BME280;5069;49.306;8.636;2023-04-30T11:34:34;100846.28;;;18.24;46.65
10060;BME280;5069;49.306;8.636;2023-04-30T11:37:40;100842.41;;;18.29;45.90
10060;BME280;5069;49.306;8.636;2023-04-30T11:40:43;100833.53;;;18.44;45.28
10060;BME280;5069;49.306;8.636;2023-04-30T11:43:45;100834.47;;;18.43;46.26
10060;BME280;5069;49.306;8.636;2023-04-30T11:46:47;100835.97;;;18.33;44.44
10060;BME280;5069;49.306;8.636;2023-04-30T11:49:50;100823.56;;;18.32;44.71
10060;BME280;5069;49.306;8.636;2023-04-30T11:52:53;100822.03;;;18.28;45.88
10060;BME280;5069;49.306;8.636;2023-04-30T11:55:54;100829.78;;;18.17;44.52
10060;BME280;5069;49.306;8.636;2023-04-30T11:58:56;100825.41;;;18.16;46.28
10060;BME280;5069;49.306;8.636;2023-04-30T12:01:57;100821.91;;;18.30;46.11
10060;BME280;5069;49.306;8.636;2023-04-30T12:04:59;100816.81;;;18.41;44.35
10060;BME280;5069;49.306;8.636;2023-04-30T12:08:03;100818.44;;;18.43;44.14
10060;BME280;5069;49.306;8.636;2023-04-30T12:11:19;100809.88;;;18.52;44.53
10060;BME280;5069;49.306;8.636;2023-04-30T12:14:23;100815.09;;;18.55;44.86
10060;BME280;5069;49.306;8.636;2023-04-30T12:17:32;100808.03;;;18.69;44.68
10060;BME280;5069;49.306;8.636;2023-04-30T12:20:34;100800.03;;;18.97;44.49
10060;BME280;5069;49.306;8.636;2023-04-30T12:23:36;100795.09;;;18.77;44.68
10060;BME280;5069;49.306;8.636;2023-04-30T12:26:39;100788.19;;;18.58;44.57
10060;BME280;5069;49.306;8.636;2023-04-30T12:29:45;100794.66;;;18.54;44.93
10060;BME280;5069;49.306;8.636;2023-04-30T12:32:49;100801.25;;;18.33;45.06
10060;BME280;5069;49.306;8.636;2023-04-30T12:35:51;100804.00;;;18.32;45.89
10060;BME280;5069;49.306;8.636;2023-04-30T12:39:10;100787.81;;;18.35;45.29
10060;BME280;5069;49.306;8.636;2023-04-30T12:42:17;100797.00;;;18.45;45.57
10060;BME280;5069;49.306;8.636;2023-04-30T12:48:44;100779.28;;;19.02;44.23
10060;BME280;5069;49.306;8.636;2023-04-30T12:51:46;100783.19;;;19.25;43.60
10060;BME280;5069;49.306;8.636;2023-04-30T12:54:47;100781.06;;;19.16;44.09
10060;BME280;5069;49.306;8.636;2023-04-30T12:58:10;100772.94;;;19.03;43.18
10060;BME280;5069;49.306;8.636;2023-04-30T13:01:12;100778.78;;;18.95;44.14
10060;BME280;5069;49.306;8.636;2023-04-30T13:04:15;100782.88;;;18.73;44.07
10060;BME280;5069;49.306;8.636;2023-04-30T13:07:17;100769.97;;;18.65;44.89
10060;BME280;5069;49.306;8.636;2023-04-30T13:10:20;100772.00;;;18.62;46.43
10060;BME280;5069;49.306;8.636;2023-04-30T13:13:21;100769.69;;;18.70;46.10
10060;BME280;5069;49.306;8.636;2023-04-30T13:16:23;100765.03;;;18.73;45.92
10060;BME280;5069;49.306;8.636;2023-04-30T13:19:25;100756.66;;;19.08;45.13
10060;BME280;5069;49.306;8.636;2023-04-30T13:22:27;100746.00;;;19.34;44.74
10060;BME280;5069;49.306;8.636;2023-04-30T13:25:33;100749.59;;;19.62;43.22
10060;BME280;5069;49.306;8.636;2023-04-30T13:28:35;100737.34;;;19.72;43.06
10060;BME280;5069;49.306;8.636;2023-04-30T13:31:36;100730.63;;;19.79;43.36
10060;BME280;5069;49.306;8.636;2023-04-30T13:34:38;100733.16;;;20.07;42.72
10060;BME280;5069;49.306;8.636;2023-04-30T13:37:40;100720.09;;;20.03;41.83
10060;BME280;5069;49.306;8.636;2023-04-30T13:40:42;100730.84;;;19.76;42.12
10060;BME280;5069;49.306;8.636;2023-04-30T13:43:43;100725.06;;;20.21;42.17
10060;BME280;5069;49.306;8.636;2023-04-30T13:46:46;100723.50;;;20.57;41.17
10060;BME280;5069;49.306;8.636;2023-04-30T13:49:48;100715.38;;;20.71;40.53
10060;BME280;5069;49.306;8.636;2023-04-30T13:52:49;100720.84;;;20.82;41.04
10060;BME280;5069;49.306;8.636;2023-04-30T13:55:51;100708.88;;;21.12;40.11
10060;BME280;5069;49.306;8.636;2023-04-30T13:58:53;100703.13;;;21.18;39.56
10060;BME280;5069;49.306;8.636;2023-04-30T14:01:54;100713.41;;;21.24;39.51
10060;BME280;5069;49.306;8.636;2023-04-30T14:04:56;100705.66;;;21.19;39.87
10060;BME280;5069;49.306;8.636;2023-04-30T14:08:07;100711.41;;;20.64;40.13
10060;BME280;5069;49.306;8.636;2023-04-30T14:11:08;100702.47;;;20.26;40.62
10060;BME280;5069;49.306;8.636;2023-04-30T14:14:10;100704.59;;;20.08;41.03
10060;BME280;5069;49.306;8.636;2023-04-30T14:17:12;100701.00;;;19.95;41.32
10060;BME280;5069;49.306;8.636;2023-04-30T14:20:13;100696.75;;;19.65;41.13
10060;BME280;5069;49.306;8.636;2023-04-30T14:23:16;100697.38;;;19.56;42.41
10060;BME280;5069;49.306;8.636;2023-04-30T14:26:18;100683.59;;;20.02;41.01
10060;BME280;5069;49.306;8.636;2023-04-30T14:29:19;100683.97;;;20.35;40.47
10060;BME280;5069;49.306;8.636;2023-04-30T14:32:26;100677.72;;;20.22;40.78
10060;BME280;5069;49.306;8.636;2023-04-30T14:35:28;100682.56;;;20.30;41.25
10060;BME280;5069;49.306;8.636;2023-04-30T14:38:29;100671.56;;;20.59;40.25
10060;BME280;5069;49.306;8.636;2023-04-30T14:41:34;100670.97;;;20.92;39.30
10060;BME280;5069;49.306;8.636;2023-04-30T14:44:37;100660.22;;;21.05;39.48
10060;BME280;5069;49.306;8.636;2023-04-30T14:47:38;100662.06;;;21.41;39.46
10060;BME280;5069;49.306;8.636;2023-04-30T14:50:40;100661.13;;;21.53;37.50
10060;BME280;5069;49.306;8.636;2023-04-30T14:53:42;100652.19;;;21.41;37.64
10060;BME280;5069;49.306;8.636;2023-04-30T14:56:43;100653.88;;;21.42;38.14
10060;BME280;5069;49.306;8.636;2023-04-30T14:59:45;100640.19;;;21.34;36.75
10060;BME280;5069;49.306;8.636;2023-04-30T15:02:47;100641.47;;;20.92;37.09
10060;BME280;5069;49.306;8.636;2023-04-30T15:05:48;100639.84;;;20.66;39.34
10060;BME280;5069;49.306;8.636;2023-04-30T15:08:50;100646.06;;;20.67;39.63
10060;BME280;5069;49.306;8.636;2023-04-30T15:11:51;100644.00;;;20.70;39.51
10060;BME280;5069;49.306;8.636;2023-04-30T15:14:54;100642.59;;;20.77;38.54
10060;BME280;5069;49.306;8.636;2023-04-30T15:17:56;100639.16;;;20.75;38.59
10060;BME280;5069;49.306;8.636;2023-04-30T15:20:58;100628.31;;;20.89;38.50
10060;BME280;5069;49.306;8.636;2023-04-30T15:23:59;100629.56;;;20.96;38.08
10060;BME280;5069;49.306;8.636;2023-04-30T15:27:01;100630.19;;;21.13;38.10
10060;BME280;5069;49.306;8.636;2023-04-30T15:30:03;100635.78;;;20.97;37.40
10060;BME280;5069;49.306;8.636;2023-04-30T15:33:06;100642.09;;;20.72;38.20
10060;BME280;5069;49.306;8.636;2023-04-30T15:36:09;100636.75;;;20.47;39.04
10060;BME280;5069;49.306;8.636;2023-04-30T15:39:11;100630.94;;;20.53;38.61
10060;BME280;5069;49.306;8.636;2023-04-30T15:42:12;100630.28;;;20.62;39.37
10060;BME280;5069;49.306;8.636;2023-04-30T15:45:14;100612.53;;;20.61;39.87
10060;BME280;5069;49.306;8.636;2023-04-30T15:48:15;100609.41;;;20.67;39.51
10060;BME280;5069;49.306;8.636;2023-04-30T15:51:18;100606.41;;;20.59;39.00
10060;BME280;5069;49.306;8.636;2023-04-30T15:54:19;100599.84;;;20.63;39.37
10060;BME280;5069;49.306;8.636;2023-04-30T15:57:21;100600.94;;;20.73;39.66
10060;BME280;5069;49.306;8.636;2023-04-30T16:00:22;100593.34;;;20.67;39.33
10060;BME280;5069;49.306;8.636;2023-04-30T16:03:24;100588.50;;;20.72;38.54
10060;BME280;5069;49.306;8.636;2023-04-30T16:06:26;100587.97;;;20.67;38.62
10060;BME280;5069;49.306;8.636;2023-04-30T16:09:30;100583.06;;;20.61;38.93
10060;BME280;5069;49.306;8.636;2023-04-30T16:12:31;100577.41;;;20.53;39.70
10060;BME280;5069;49.306;8.636;2023-04-30T16:15:34;100576.94;;;20.59;38.78
10060;BME280;5069;49.306;8.636;2023-04-30T16:18:36;100585.75;;;20.48;39.57
10060;BME280;5069;49.306;8.636;2023-04-30T16:21:38;100585.75;;;20.48;39.42